Time;durP1;ratioP1;P1;durP2;ratioP2;P2;SDS_P1;SDS_P2;PMS_P1;PMS_P2;Temp;Humidity;BMP_temperature;BMP_pressure;BME280_temperature;BME280_humidity;BME280_pressure;Samples;Min_cycle;Max_cycle;Signal;HPM_P1;HPM_P2
2023/06/01 00:00:24;;;;;;;12.85;7.18;;;;;;;;;;5094591;28;20055;-67
2023/06/01 00:02:52;;;;;;;16.92;7.20;;;;;;;;;;5094648;28;20123;-67
2023/06/01 00:05:20;;;;;;;13.75;8.63;;;;;;;;;;5094800;28;20456;-67
2023/06/01 00:07:47;;;;;;;17.02;8.15;;;;;;;;;;5096198;28;20439;-67
2023/06/01 00:10:14;;;;;;;15.88;8.10;;;;;;;;;;5095665;28;20044;-67
2023/06/01 00:12:43;;;;;;;13.15;7.60;;;;;;;;;;5094629;28;20047;-67
2023/06/01 00:15:10;;;;;;;14.60;7.28;;;;;;;;;;5095856;28;20040;-67
2023/06/01 00:17:38;;;;;;;12.57;7.15;;;;;;;;;;5095558;28;20040;-67
2023/06/01 00:20:08;;;;;;;17.52;7.53;;;;;;;;;;5095524;28;20497;-67
2023/06/01 00:22:38;;;;;;;15.15;8.40;;;;;;;;;;5095614;28;20451;-67
2023/06/01 00:25:09;;;;;;;13.32;7.60;;;;;;;;;;5095509;28;20062;-67
2023/06/01 00:27:37;;;;;;;17.00;8.13;;;;;;;;;;5095358;28;20043;-66
2023/06/01 00:30:04;;;;;;;15.20;8.23;;;;;;;;;;5093839;28;20101;-67
2023/06/01 00:32:32;;;;;;;19.23;8.38;;;;;;;;;;5094176;28;20082;-66
2023/06/01 00:35:00;;;;;;;14.93;7.47;;;;;;;;;;5095151;28;20409;-66
2023/06/01 00:37:28;;;;;;;15.77;7.53;;;;;;;;;;5095312;28;20440;-67
2023/06/01 00:39:56;;;;;;;13.25;7.13;;;;;;;;;;5093775;28;20041;-67
2023/06/01 00:42:24;;;;;;;16.38;7.70;;;;;;;;;;5095447;28;20054;-66
2023/06/01 00:44:53;;;;;;;16.85;7.68;;;;;;;;;;5093822;28;20131;-67
2023/06/01 00:47:21;;;;;;;13.25;7.07;;;;;;;;;;5093733;28;20050;-67
2023/06/01 00:49:48;;;;;;;16.00;7.40;;;;;;;;;;5093550;28;20036;-66
2023/06/01 00:52:16;;;;;;;13.48;7.22;;;;;;;;;;5093548;28;20134;-66
2023/06/01 00:54:43;;;;;;;13.48;7.10;;;;;;;;;;5094027;28;20454;-67
2023/06/01 00:57:11;;;;;;;16.42;7.35;;;;;;;;;;5093589;28;20143;-67
2023/06/01 00:59:38;;;;;;;15.27;7.43;;;;;;;;;;5093512;28;20040;-66
2023/06/01 01:02:08;;;;;;;16.77;8.23;;;;;;;;;;5093385;28;20497;-67
2023/06/01 01:04:36;;;;;;;15.57;8.07;;;;;;;;;;5093866;28;20060;-67
2023/06/01 01:07:26;;;;;;;14.13;7.95;;;;;;;;;;5094843;28;20059;-67
2023/06/01 01:09:57;;;;;;;15.70;8.57;;;;;;;;;;5094594;28;20054;-67
2023/06/01 01:12:46;;;;;;;17.02;7.85;;;;;;;;;;5094697;28;20397;-67
2023/06/01 01:15:32;;;;;;;17.08;7.70;;;;;;;;;;5093087;28;20075;-67
2023/06/01 01:18:03;;;;;;;16.58;8.32;;;;;;;;;;5093749;28;20059;-67
2023/06/01 01:20:36;;;;;;;16.35;7.85;;;;;;;;;;5093137;28;20052;-67
2023/06/01 01:23:16;;;;;;;14.95;8.50;;;;;;;;;;5093073;28;20436;-67
2023/06/01 01:26:09;;;;;;;17.75;8.82;;;;;;;;;;5093018;28;20135;-67
2023/06/01 01:29:01;;;;;;;20.02;9.13;;;;;;;;;;5092904;28;20047;-67
2023/06/01 01:31:29;;;;;;;14.85;8.65;;;;;;;;;;5092830;28;20078;-67
2023/06/01 01:33:58;;;;;;;16.48;8.98;;;;;;;;;;5092897;28;20490;-68
2023/06/01 01:36:26;;;;;;;17.80;9.32;;;;;;;;;;5093156;28;20048;-67
2023/06/01 01:38:54;;;;;;;16.70;9.13;;;;;;;;;;5092893;28;20036;-67
2023/06/01 01:41:22;;;;;;;20.38;9.95;;;;;;;;;;5092694;28;20131;-67
2023/06/01 01:43:50;;;;;;;13.68;8.52;;;;;;;;;;5092694;28;20137;-67
2023/06/01 01:46:26;;;;;;;19.27;9.55;;;;;;;;;;5092632;28;20059;-67
2023/06/01 01:49:06;;;;;;;20.45;9.82;;;;;;;;;;5092510;28;20047;-67
2023/06/01 01:51:51;;;;;;;17.25;9.15;;;;;;;;;;5092677;28;20097;-67
2023/06/01 01:54:19;;;;;;;16.90;8.93;;;;;;;;;;5092448;28;20524;-67
2023/06/01 01:56:50;;;;;;;17.48;9.93;;;;;;;;;;5092344;28;20040;-67
2023/06/01 01:59:17;;;;;;;15.65;8.55;;;;;;;;;;5091635;28;20570;-67
2023/06/01 02:01:46;;;;;;;18.83;9.20;;;;;;;;;;5091862;28;20050;-66
2023/06/01 02:04:13;;;;;;;15.35;9.13;;;;;;;;;;5092558;28;20047;-67
2023/06/01 02:06:41;;;;;;;18.25;9.45;;;;;;;;;;5092339;28;20064;-66
2023/06/01 02:09:09;;;;;;;15.75;9.35;;;;;;;;;;5092261;28;20048;-67
2023/06/01 02:11:37;;;;;;;13.38;9.23;;;;;;;;;;5093612;28;20036;-67
2023/06/01 02:14:05;;;;;;;16.77;9.77;;;;;;;;;;5093548;28;20068;-67
2023/06/01 02:16:32;;;;;;;18.00;10.20;;;;;;;;;;5092497;28;20033;-67
2023/06/01 02:19:02;;;;;;;16.20;9.50;;;;;;;;;;5092092;28;20044;-67
2023/06/01 02:21:30;;;;;;;20.60;9.93;;;;;;;;;;5091696;28;20572;-67
2023/06/01 02:24:05;;;;;;;15.90;9.32;;;;;;;;;;5091893;28;20131;-67
2023/06/01 02:26:33;;;;;;;18.98;10.07;;;;;;;;;;5091886;28;20466;-67
2023/06/01 02:29:05;;;;;;;24.55;10.70;;;;;;;;;;5091591;28;20367;-66
2023/06/01 02:31:33;;;;;;;20.27;10.02;;;;;;;;;;5093289;28;20040;-66
2023/06/01 02:34:01;;;;;;;20.55;10.18;;;;;;;;;;5091505;28;20127;-66
2023/06/01 02:36:31;;;;;;;16.73;9.65;;;;;;;;;;5091698;28;20040;-67
2023/06/01 02:39:00;;;;;;;14.30;9.00;;;;;;;;;;5091767;28;20044;-67
2023/06/01 02:41:27;;;;;;;20.02;9.65;;;;;;;;;;5091704;28;20040;-67
2023/06/01 02:43:55;;;;;;;18.58;9.80;;;;;;;;;;5093000;28;20115;-67
2023/06/01 02:46:23;;;;;;;18.25;10.18;;;;;;;;;;5091530;28;20043;-67
2023/06/01 02:48:51;;;;;;;15.35;9.70;;;;;;;;;;5074594;28;20048;-67
2023/06/01 02:51:21;;;;;;;16.80;9.95;;;;;;;;;;5091410;28;20063;-67
2023/06/01 02:53:55;;;;;;;19.38;11.07;;;;;;;;;;5091628;28;20127;-67
2023/06/01 02:56:22;;;;;;;14.38;9.90;;;;;;;;;;5091396;28;20050;-67
2023/06/01 02:59:08;;;;;;;19.23;11.77;;;;;;;;;;5092698;28;20063;-67
2023/06/01 03:01:42;;;;;;;19.60;11.07;;;;;;;;;;5091550;28;20054;-67
2023/06/01 03:04:10;;;;;;;18.48;10.63;;;;;;;;;;5092578;28;20067;-67
2023/06/01 03:06:38;;;;;;;17.50;10.82;;;;;;;;;;5091415;28;20493;-67
2023/06/01 03:09:21;;;;;;;16.33;10.32;;;;;;;;;;5092782;28;20470;-67
2023/06/01 03:11:52;;;;;;;18.38;10.25;;;;;;;;;;5091370;28;20093;-67
2023/06/01 03:14:21;;;;;;;18.65;10.70;;;;;;;;;;5092987;28;20067;-68
2023/06/01 03:16:48;;;;;;;17.50;9.48;;;;;;;;;;5094801;28;20033;-68
2023/06/01 03:19:18;;;;;;;18.77;10.77;;;;;;;;;;5095531;28;20042;-68
2023/06/01 03:21:49;;;;;;;19.83;10.90;;;;;;;;;;5095373;28;20098;-67
2023/06/01 03:24:22;;;;;;;20.83;10.57;;;;;;;;;;5095383;28;20047;-66
2023/06/01 03:26:50;;;;;;;21.85;9.88;;;;;;;;;;5096629;28;20051;-66
2023/06/01 03:29:17;;;;;;;19.58;9.90;;;;;;;;;;5095216;28;20062;-66
2023/06/01 03:31:45;;;;;;;23.88;9.93;;;;;;;;;;5096477;28;20040;-67
2023/06/01 03:34:16;;;;;;;18.90;9.80;;;;;;;;;;5095188;28;20094;-66
2023/06/01 03:36:47;;;;;;;22.63;9.57;;;;;;;;;;5095029;28;20089;-66
2023/06/01 03:39:16;;;;;;;23.88;9.82;;;;;;;;;;5095374;28;20048;-66
2023/06/01 03:41:46;;;;;;;28.83;10.05;;;;;;;;;;5094921;28;20390;-66
2023/06/01 03:44:15;;;;;;;20.02;9.65;;;;;;;;;;5096323;28;20055;-66
2023/06/01 03:46:45;;;;;;;23.73;9.45;;;;;;;;;;5094984;28;20036;-66
2023/06/01 03:49:14;;;;;;;18.90;10.10;;;;;;;;;;5094815;28;20044;-66
2023/06/01 03:51:42;;;;;;;24.20;9.88;;;;;;;;;;5096131;28;20122;-66
2023/06/01 03:54:10;;;;;;;27.13;10.73;;;;;;;;;;5094852;28;20512;-66
2023/06/01 03:56:37;;;;;;;18.70;9.68;;;;;;;;;;5094830;28;20071;-66
2023/06/01 03:59:09;;;;;;;26.85;10.27;;;;;;;;;;5094603;28;20040;-66
2023/06/01 04:01:39;;;;;;;23.90;9.73;;;;;;;;;;5094690;28;20048;-66
2023/06/01 04:04:08;;;;;;;28.48;10.05;;;;;;;;;;5094673;28;20044;-66
2023/06/01 04:06:36;;;;;;;28.83;10.35;;;;;;;;;;5094714;28;20470;-67
2023/06/01 04:09:08;;;;;;;23.17;9.93;;;;;;;;;;5094788;28;20402;-67
2023/06/01 04:11:36;;;;;;;24.25;10.80;;;;;;;;;;5094585;28;20530;-67
2023/06/01 04:14:04;;;;;;;24.70;11.32;;;;;;;;;;5094390;28;20036;-67
2023/06/01 04:16:33;;;;;;;22.02;10.52;;;;;;;;;;5074215;28;20057;-67
2023/06/01 04:19:01;;;;;;;21.85;10.23;;;;;;;;;;5074100;28;20559;-67
2023/06/01 04:21:32;;;;;;;25.05;10.30;;;;;;;;;;5075055;28;20398;-67
2023/06/01 04:24:00;;;;;;;20.48;10.15;;;;;;;;;;5073811;28;20055;-67
2023/06/01 04:26:28;;;;;;;21.63;10.20;;;;;;;;;;5074049;28;20044;-67
2023/06/01 04:28:56;;;;;;;27.95;11.32;;;;;;;;;;5073717;28;20044;-67
2023/06/01 04:31:24;;;;;;;22.98;12.00;;;;;;;;;;5073936;28;20044;-67
2023/06/01 04:33:52;;;;;;;18.85;11.38;;;;;;;;;;5073647;28;20145;-67
2023/06/01 04:36:23;;;;;;;22.55;11.43;;;;;;;;;;5073681;28;20044;-66
2023/06/01 04:38:57;;;;;;;25.90;11.20;;;;;;;;;;5073786;28;20056;-66
2023/06/01 04:41:26;;;;;;;23.25;11.05;;;;;;;;;;5073482;28;20380;-66
2023/06/01 04:43:53;;;;;;;25.60;10.88;;;;;;;;;;5073637;28;20072;-66
2023/06/01 04:46:25;;;;;;;21.80;10.60;;;;;;;;;;5074982;28;20044;-67
2023/06/01 04:48:57;;;;;;;19.92;10.23;;;;;;;;;;5073610;28;20471;-67
2023/06/01 04:51:26;;;;;;;15.80;10.00;;;;;;;;;;5075924;28;20036;-67
2023/06/01 04:53:54;;;;;;;24.65;10.23;;;;;;;;;;5084853;28;20032;-68
2023/06/01 04:56:28;;;;;;;19.00;9.50;;;;;;;;;;5094961;28;20493;-69
2023/06/01 04:58:57;;;;;;;14.15;9.50;;;;;;;;;;5093623;28;20044;-69
2023/06/01 05:01:29;;;;;;;20.75;9.27;;;;;;;;;;5093558;28;20409;-69
2023/06/01 05:03:58;;;;;;;20.13;9.27;;;;;;;;;;5093621;28;20512;-69
2023/06/01 05:06:27;;;;;;;17.65;9.70;;;;;;;;;;5093600;28;20048;-69
2023/06/01 05:08:55;;;;;;;19.45;9.77;;;;;;;;;;5093366;28;20565;-68
2023/06/01 05:11:25;;;;;;;17.00;8.98;;;;;;;;;;5093443;28;20071;-68
2023/06/01 05:13:57;;;;;;;14.27;9.70;;;;;;;;;;5093508;28;20040;-68
2023/06/01 05:16:25;;;;;;;19.77;8.85;;;;;;;;;;5093356;28;20067;-69
2023/06/01 05:18:54;;;;;;;14.93;9.18;;;;;;;;;;5093145;28;20036;-69
2023/06/01 05:21:22;;;;;;;15.63;9.35;;;;;;;;;;5093469;28;20534;-69
2023/06/01 05:23:50;;;;;;;15.68;8.63;;;;;;;;;;5093555;28;20036;-68
2023/06/01 05:26:17;;;;;;;16.85;9.02;;;;;;;;;;5092980;28;20033;-69
2023/06/01 05:28:45;;;;;;;14.27;9.27;;;;;;;;;;5093096;28;20040;-69
2023/06/01 05:31:16;;;;;;;12.85;8.63;;;;;;;;;;5094165;28;20074;-69
2023/06/01 05:33:52;;;;;;;18.02;9.57;;;;;;;;;;5092843;28;20502;-69
2023/06/01 05:36:20;;;;;;;18.55;9.73;;;;;;;;;;5093345;28;20093;-68
2023/06/01 05:38:47;;;;;;;12.70;8.73;;;;;;;;;;5092866;28;20036;-68
2023/06/01 05:41:15;;;;;;;19.27;8.65;;;;;;;;;;5092999;28;20044;-69
2023/06/01 05:43:43;;;;;;;15.80;9.25;;;;;;;;;;5092733;28;20063;-69
2023/06/01 05:46:10;;;;;;;15.63;9.30;;;;;;;;;;5092706;28;20569;-68
2023/06/01 05:48:39;;;;;;;18.15;9.90;;;;;;;;;;5092641;28;20039;-68
2023/06/01 05:51:09;;;;;;;14.98;9.15;;;;;;;;;;5092470;28;20569;-68
2023/06/01 05:53:37;;;;;;;18.80;9.68;;;;;;;;;;5084852;28;20136;-75
2023/06/01 05:56:04;;;;;;;12.32;9.00;;;;;;;;;;5092291;28;20086;-76
2023/06/01 05:58:32;;;;;;;17.52;9.60;;;;;;;;;;5092503;28;20051;-76
2023/06/01 06:00:59;;;;;;;14.90;9.50;;;;;;;;;;5086019;28;20045;-77
2023/06/01 06:03:28;;;;;;;16.45;9.38;;;;;;;;;;5080653;28;20040;-77
2023/06/01 06:05:56;;;;;;;17.35;9.50;;;;;;;;;;5073909;28;20040;-78
2023/06/01 06:08:24;;;;;;;13.70;9.55;;;;;;;;;;5073973;28;20155;-76
2023/06/01 06:10:54;;;;;;;14.30;9.63;;;;;;;;;;5073213;28;20047;-76
2023/06/01 06:13:21;;;;;;;14.32;9.43;;;;;;;;;;5073411;28;20060;-75
2023/06/01 06:15:49;;;;;;;12.65;8.90;;;;;;;;;;5071995;28;20078;-74
2023/06/01 06:18:16;;;;;;;15.30;10.60;;;;;;;;;;5073191;28;20043;-75
2023/06/01 06:20:44;;;;;;;16.40;10.57;;;;;;;;;;5073156;28;20040;-74
2023/06/01 06:23:12;;;;;;;15.13;10.00;;;;;;;;;;5072829;28;20044;-75
2023/06/01 06:25:43;;;;;;;17.30;9.27;;;;;;;;;;5073139;28;20115;-75
2023/06/01 06:28:11;;;;;;;16.70;9.15;;;;;;;;;;5073273;28;20071;-75
2023/06/01 06:30:38;;;;;;;17.50;9.85;;;;;;;;;;5072767;28;20054;-75
2023/06/01 06:33:05;;;;;;;12.23;8.77;;;;;;;;;;5072820;28;20119;-75
2023/06/01 06:35:41;;;;;;;12.43;8.55;;;;;;;;;;5072685;28;20139;-74
2023/06/01 06:38:09;;;;;;;14.07;9.05;;;;;;;;;;5073004;28;20039;-75
2023/06/01 06:40:36;;;;;;;10.70;9.45;;;;;;;;;;5072922;28;20040;-74
2023/06/01 06:43:03;;;;;;;14.05;9.38;;;;;;;;;;5073213;28;20128;-75
2023/06/01 06:45:31;;;;;;;21.27;9.93;;;;;;;;;;5071497;28;20068;-76
2023/06/01 06:47:58;;;;;;;11.88;8.82;;;;;;;;;;5072581;28;20044;-75
2023/06/01 06:50:26;;;;;;;13.77;8.38;;;;;;;;;;5072611;28;20044;-75
2023/06/01 06:52:53;;;;;;;12.70;9.00;;;;;;;;;;5072596;28;20048;-75
2023/06/01 06:55:22;;;;;;;14.88;8.57;;;;;;;;;;5072727;28;20037;-75
2023/06/01 06:57:49;;;;;;;12.52;8.90;;;;;;;;;;5072601;28;20055;-74
2023/06/01 07:00:18;;;;;;;20.27;9.80;;;;;;;;;;5072599;28;20552;-74
2023/06/01 07:02:46;;;;;;;15.88;8.70;;;;;;;;;;5072466;28;20039;-73
2023/06/01 07:05:14;;;;;;;19.38;9.32;;;;;;;;;;5072623;28;20046;-74
2023/06/01 07:07:42;;;;;;;13.57;8.85;;;;;;;;;;5072538;28;20037;-74
2023/06/01 07:10:09;;;;;;;20.65;8.85;;;;;;;;;;5071214;28;20068;-75
2023/06/01 07:12:37;;;;;;;10.88;8.43;;;;;;;;;;5072462;28;20040;-74
2023/06/01 07:15:05;;;;;;;12.80;9.30;;;;;;;;;;5071367;28;20097;-74
2023/06/01 07:17:32;;;;;;;14.05;8.95;;;;;;;;;;5072554;28;20039;-75
2023/06/01 07:20:01;;;;;;;12.40;8.48;;;;;;;;;;5072306;28;20119;-75
2023/06/01 07:22:28;;;;;;;14.82;8.43;;;;;;;;;;5072271;28;20112;-75
2023/06/01 07:24:56;;;;;;;15.65;7.38;;;;;;;;;;5072617;28;20419;-75
2023/06/01 07:27:24;;;;;;;14.23;7.57;;;;;;;;;;5072285;28;20047;-74
2023/06/01 07:29:54;;;;;;;11.93;7.85;;;;;;;;;;5071921;28;20114;-75
2023/06/01 07:32:22;;;;;;;11.05;7.65;;;;;;;;;;5072231;28;20111;-74
2023/06/01 07:34:50;;;;;;;9.35;7.50;;;;;;;;;;5072137;28;20509;-76
2023/06/01 07:37:21;;;;;;;10.43;7.50;;;;;;;;;;5072479;28;20037;-75
2023/06/01 07:39:49;;;;;;;9.00;7.10;;;;;;;;;;5072204;28;20056;-75
2023/06/01 07:42:16;;;;;;;8.88;6.15;;;;;;;;;;5071175;28;20102;-75
2023/06/01 07:44:45;;;;;;;11.15;6.72;;;;;;;;;;5072131;28;20075;-75
2023/06/01 07:47:13;;;;;;;11.13;6.53;;;;;;;;;;5072017;28;20041;-75
2023/06/01 07:49:40;;;;;;;9.63;7.25;;;;;;;;;;5072189;28;20041;-74
2023/06/01 07:52:08;;;;;;;9.43;7.10;;;;;;;;;;5072100;28;20551;-75
2023/06/01 07:54:36;;;;;;;10.25;6.70;;;;;;;;;;5072000;28;20036;-74
2023/06/01 07:57:05;;;;;;;10.98;6.05;;;;;;;;;;5072148;28;20122;-75
2023/06/01 07:59:32;;;;;;;9.82;6.25;;;;;;;;;;5071508;28;20120;-74
2023/06/01 08:02:00;;;;;;;7.78;6.05;;;;;;;;;;5075714;28;20045;-74
2023/06/01 08:04:33;;;;;;;10.50;6.30;;;;;;;;;;5075794;28;20040;-73
2023/06/01 08:07:06;;;;;;;9.20;6.47;;;;;;;;;;5076123;28;20044;-74
2023/06/01 08:09:34;;;;;;;8.45;5.80;;;;;;;;;;5075744;28;20068;-75
2023/06/01 08:12:02;;;;;;;8.57;4.72;;;;;;;;;;5074412;28;20041;-74
2023/06/01 08:14:32;;;;;;;8.70;5.70;;;;;;;;;;5075618;28;20529;-74
2023/06/01 08:17:01;;;;;;;8.48;5.78;;;;;;;;;;5075428;28;20123;-73
2023/06/01 08:19:28;;;;;;;7.38;5.07;;;;;;;;;;5075618;28;20036;-73
2023/06/01 08:21:57;;;;;;;7.07;5.07;;;;;;;;;;5075526;28;20071;-75
2023/06/01 08:24:24;;;;;;;7.20;5.13;;;;;;;;;;5075340;28;20064;-75
2023/06/01 08:26:58;;;;;;;11.25;5.20;;;;;;;;;;5075152;28;20044;-75
2023/06/01 08:29:26;;;;;;;;;;;;;;;;;;5075413;28;20049;-74
2023/06/01 08:32:08;;;;;;;7.30;4.97;;;;;;;;;;5075307;28;19920;-74
2023/06/01 08:34:35;;;;;;;7.18;4.65;;;;;;;;;;5075390;28;20045;-73
2023/06/01 08:37:03;;;;;;;8.77;5.15;;;;;;;;;;5075263;28;20041;-73
2023/06/01 08:39:30;;;;;;;7.90;5.13;;;;;;;;;;5075330;28;20110;-74
2023/06/01 08:42:14;;;;;;;8.88;5.53;;;;;;;;;;5075197;28;20400;-74
2023/06/01 08:44:42;;;;;;;11.10;4.90;;;;;;;;;;5074913;28;20055;-71
2023/06/01 08:47:10;;;;;;;10.82;5.32;;;;;;;;;;5074980;28;20044;-74
2023/06/01 08:49:38;;;;;;;11.85;6.82;;;;;;;;;;5075137;28;20047;-72
2023/06/01 08:52:12;;;;;;;9.45;5.15;;;;;;;;;;5075214;28;20398;-73
2023/06/01 08:54:40;;;;;;;7.40;5.47;;;;;;;;;;5073757;28;20044;-73
2023/06/01 08:57:08;;;;;;;7.53;5.07;;;;;;;;;;5073651;28;20033;-74
2023/06/01 08:59:36;;;;;;;6.43;5.30;;;;;;;;;;5074788;28;20437;-73
2023/06/01 09:02:03;;;;;;;9.05;5.80;;;;;;;;;;5074882;28;20047;-73
2023/06/01 09:04:35;;;;;;;9.95;7.22;;;;;;;;;;5074516;28;20098;-74
2023/06/01 09:07:02;;;;;;;22.58;18.83;;;;;;;;;;5074729;28;20402;-75
2023/06/01 09:09:30;;;;;;;15.27;11.98;;;;;;;;;;5074615;28;20037;-74
2023/06/01 09:12:16;;;;;;;8.65;5.28;;;;;;;;;;5073525;28;20394;-74
2023/06/01 09:14:44;;;;;;;10.80;7.97;;;;;;;;;;5074417;28;20052;-73
2023/06/01 09:17:15;;;;;;;10.23;6.22;;;;;;;;;;5074629;28;20394;-72
2023/06/01 09:19:46;;;;;;;10.68;6.10;;;;;;;;;;5074194;28;20046;-72
2023/06/01 09:22:13;;;;;;;15.05;12.10;;;;;;;;;;5074189;28;20079;-73
2023/06/01 09:24:41;;;;;;;20.58;17.45;;;;;;;;;;5074192;28;20390;-73
2023/06/01 09:27:09;;;;;;;9.85;5.68;;;;;;;;;;5074487;28;20049;-73
2023/06/01 09:29:36;;;;;;;11.98;5.45;;;;;;;;;;5074123;28;20045;-72
2023/06/01 09:32:05;;;;;;;9.95;8.18;;;;;;;;;;5074052;28;20052;-72
2023/06/01 09:34:32;;;;;;;10.13;6.15;;;;;;;;;;5074056;28;20394;-73
2023/06/01 09:37:06;;;;;;;10.60;5.30;;;;;;;;;;5074014;28;20116;-75
2023/06/01 09:39:35;;;;;;;7.00;5.30;;;;;;;;;;5074306;28;20044;-73
2023/06/01 09:42:02;;;;;;;7.97;5.03;;;;;;;;;;5074071;28;20056;-73
2023/06/01 09:44:31;;;;;;;9.23;6.60;;;;;;;;;;5073793;28;20075;-72
2023/06/01 09:46:59;;;;;;;8.15;5.50;;;;;;;;;;5073686;28;20051;-73
2023/06/01 09:49:28;;;;;;;10.85;4.95;;;;;;;;;;5073810;28;20092;-72
2023/06/01 09:52:04;;;;;;;6.93;5.30;;;;;;;;;;5072604;28;20041;-74
2023/06/01 09:54:35;;;;;;;12.77;7.47;;;;;;;;;;5072714;28;20493;-72
2023/06/01 09:57:03;;;;;;;10.48;7.97;;;;;;;;;;5073561;28;20490;-74
2023/06/01 09:59:43;;;;;;;8.82;5.70;;;;;;;;;;5073482;28;20129;-72
2023/06/01 10:02:20;;;;;;;11.25;10.13;;;;;;;;;;5073558;28;20177;-73
2023/06/01 10:04:49;;;;;;;7.65;5.38;;;;;;;;;;5073338;28;20384;-72
2023/06/01 10:07:17;;;;;;;9.02;6.05;;;;;;;;;;5073344;28;20036;-73
2023/06/01 10:09:52;;;;;;;7.47;6.15;;;;;;;;;;5073371;28;20554;-73
2023/06/01 10:12:20;;;;;;;9.15;5.20;;;;;;;;;;5073287;28;20053;-73
2023/06/01 10:14:47;;;;;;;9.45;5.40;;;;;;;;;;5073428;28;20049;-72
2023/06/01 10:17:16;;;;;;;9.48;5.95;;;;;;;;;;5073190;28;20135;-73
2023/06/01 10:19:44;;;;;;;8.52;5.57;;;;;;;;;;5071772;28;20051;-73
2023/06/01 10:22:12;;;;;;;7.50;6.07;;;;;;;;;;5072590;28;20127;-73
2023/06/01 10:24:43;;;;;;;10.35;6.20;;;;;;;;;;5073273;28;20052;-73
2023/06/01 10:27:17;;;;;;;9.70;5.85;;;;;;;;;;5073020;28;20037;-74
2023/06/01 10:29:45;;;;;;;7.88;5.72;;;;;;;;;;5072596;28;20101;-72
2023/06/01 10:32:31;;;;;;;9.55;5.63;;;;;;;;;;5073205;28;20484;-73
2023/06/01 10:34:58;;;;;;;8.93;5.32;;;;;;;;;;5072694;28;20074;-73
2023/06/01 10:37:26;;;;;;;8.05;4.75;;;;;;;;;;5072770;28;20040;-73
2023/06/01 10:39:53;;;;;;;8.65;5.55;;;;;;;;;;5072816;28;20111;-73
2023/06/01 10:42:24;;;;;;;9.70;5.15;;;;;;;;;;5072747;28;20068;-74
2023/06/01 10:44:51;;;;;;;5.97;4.72;;;;;;;;;;5072917;28;20067;-73
2023/06/01 10:47:19;;;;;;;9.52;5.40;;;;;;;;;;5072707;28;20469;-73
2023/06/01 10:49:50;;;;;;;9.48;6.43;;;;;;;;;;5071525;28;20410;-73
2023/06/01 10:52:35;;;;;;;8.77;5.55;;;;;;;;;;5072786;28;20051;-73
2023/06/01 10:55:06;;;;;;;8.68;5.35;;;;;;;;;;5072747;28;20040;-72
2023/06/01 10:57:33;;;;;;;7.30;5.18;;;;;;;;;;5072692;28;20094;-72
2023/06/01 11:00:16;;;;;;;7.72;5.10;;;;;;;;;;5072809;28;20111;-74
2023/06/01 11:02:46;;;;;;;9.75;4.82;;;;;;;;;;5072852;28;20048;-73
2023/06/01 11:05:32;;;;;;;9.13;5.47;;;;;;;;;;5072505;28;20072;-73
2023/06/01 11:08:00;;;;;;;11.80;5.80;;;;;;;;;;5072554;28;20036;-73
2023/06/01 11:10:46;;;;;;;8.30;5.50;;;;;;;;;;5072592;28;20045;-73
2023/06/01 11:13:18;;;;;;;9.77;5.53;;;;;;;;;;5072545;28;20079;-74
2023/06/01 11:16:13;;;;;;;9.63;5.75;;;;;;;;;;5072602;28;20120;-73
2023/06/01 11:18:44;;;;;;;8.05;5.10;;;;;;;;;;5072444;28;20054;-71
2023/06/01 11:21:20;;;;;;;7.05;5.50;;;;;;;;;;5072566;28;20072;-72
2023/06/01 11:23:49;;;;;;;10.63;5.28;;;;;;;;;;5072299;28;20037;-72
2023/06/01 11:26:18;;;;;;;6.72;5.53;;;;;;;;;;5072323;28;20296;-72
2023/06/01 11:28:49;;;;;;;7.25;5.15;;;;;;;;;;5072692;28;20033;-72
2023/06/01 11:31:18;;;;;;;6.72;5.20;;;;;;;;;;5072153;28;20094;-72
2023/06/01 11:33:58;;;;;;;8.73;5.15;;;;;;;;;;5072183;28;20032;-73
2023/06/01 11:36:26;;;;;;;8.93;4.80;;;;;;;;;;5076133;28;20375;-72
2023/06/01 11:38:55;;;;;;;8.77;5.07;;;;;;;;;;5076410;28;20371;-73
2023/06/01 11:41:23;;;;;;;9.95;5.40;;;;;;;;;;5076222;28;20086;-72
2023/06/01 11:43:57;;;;;;;7.03;5.15;;;;;;;;;;5076356;28;20058;-72
2023/06/01 11:46:26;;;;;;;8.55;5.07;;;;;;;;;;5074651;28;20041;-73
2023/06/01 11:49:04;;;;;;;7.80;4.80;;;;;;;;;;5074736;28;20092;-73
2023/06/01 11:51:44;;;;;;;9.05;5.47;;;;;;;;;;5075912;28;20040;-73
2023/06/01 11:54:12;;;;;;;9.02;5.15;;;;;;;;;;5075828;28;20032;-74
2023/06/01 11:56:40;;;;;;;9.40;5.70;;;;;;;;;;5075857;28;20037;-72
2023/06/01 11:59:09;;;;;;;9.93;5.45;;;;;;;;;;5074730;28;20036;-72
2023/06/01 12:01:41;;;;;;;8.73;5.32;;;;;;;;;;5075768;28;20086;-72
2023/06/01 12:04:12;;;;;;;7.70;5.28;;;;;;;;;;5075896;28;20047;-72
2023/06/01 12:06:40;;;;;;;9.68;5.43;;;;;;;;;;5075631;28;20160;-72
2023/06/01 12:09:08;;;;;;;8.43;4.90;;;;;;;;;;5075729;28;20367;-72
2023/06/01 12:11:37;;;;;;;6.95;4.97;;;;;;;;;;5075617;28;20040;-73
2023/06/01 12:14:06;;;;;;;11.95;6.00;;;;;;;;;;5075322;28;20041;-73
2023/06/01 12:16:52;;;;;;;12.98;6.32;;;;;;;;;;5075575;28;20040;-72
2023/06/01 12:19:21;;;;;;;6.57;4.90;;;;;;;;;;5075365;28;20585;-74
2023/06/01 12:21:50;;;;;;;11.15;5.25;;;;;;;;;;5075289;28;20043;-72
2023/06/01 12:24:19;;;;;;;7.45;4.78;;;;;;;;;;5075461;28;20044;-72
2023/06/01 12:26:46;;;;;;;9.20;4.45;;;;;;;;;;5075537;28;20087;-72
2023/06/01 12:29:13;;;;;;;9.70;5.25;;;;;;;;;;5075251;28;20047;-73
2023/06/01 12:31:53;;;;;;;10.40;5.75;;;;;;;;;;5075050;28;20056;-72
2023/06/01 12:34:21;;;;;;;11.40;6.05;;;;;;;;;;5075043;28;20048;-73
2023/06/01 12:36:48;;;;;;;8.52;6.03;;;;;;;;;;5075027;28;20051;-74
2023/06/01 12:39:16;;;;;;;16.35;6.07;;;;;;;;;;5075161;28;20452;-76
2023/06/01 12:41:50;;;;;;;10.02;5.22;;;;;;;;;;5075041;28;20043;-76
2023/06/01 12:44:20;;;;;;;9.90;5.78;;;;;;;;;;5089664;28;20043;-68
2023/06/01 12:46:48;;;;;;;11.10;6.25;;;;;;;;;;5095814;28;20389;-79
2023/06/01 12:49:17;;;;;;;8.82;5.43;;;;;;;;;;5093884;28;20073;-77
2023/06/01 12:51:45;;;;;;;9.85;7.78;;;;;;;;;;5095230;28;20047;-77
2023/06/01 12:54:15;;;;;;;10.23;5.97;;;;;;;;;;5094984;28;20047;-78
2023/06/01 12:56:42;;;;;;;11.55;5.32;;;;;;;;;;5095000;28;20109;-78
2023/06/01 12:59:10;;;;;;;11.20;7.85;;;;;;;;;;5094973;28;20032;-78
2023/06/01 13:01:37;;;;;;;9.43;7.15;;;;;;;;;;5088781;28;20036;-77
2023/06/01 13:04:07;;;;;;;12.07;5.32;;;;;;;;;;5090346;28;20044;-77
2023/06/01 13:06:35;;;;;;;9.68;5.75;;;;;;;;;;5094345;28;20047;-78
2023/06/01 13:09:03;;;;;;;10.50;6.50;;;;;;;;;;5093517;28;20072;-75
2023/06/01 13:11:30;;;;;;;13.85;6.18;;;;;;;;;;5088251;28;20044;-74
2023/06/01 13:13:58;;;;;;;8.85;5.50;;;;;;;;;;5094494;28;20040;-75
2023/06/01 13:16:26;;;;;;;8.65;5.55;;;;;;;;;;5092175;28;20051;-74
2023/06/01 13:18:54;;;;;;;9.73;5.22;;;;;;;;;;5081720;28;20040;-74
2023/06/01 13:21:21;;;;;;;10.38;5.70;;;;;;;;;;5080205;28;20127;-72
2023/06/01 13:23:49;;;;;;;10.52;5.43;;;;;;;;;;5073803;28;20046;-73
2023/06/01 13:26:17;;;;;;;7.68;4.72;;;;;;;;;;5073401;28;20037;-73
2023/06/01 13:28:45;;;;;;;9.30;5.95;;;;;;;;;;5073333;28;20524;-72
2023/06/01 13:31:12;;;;;;;9.27;5.63;;;;;;;;;;5073698;28;20421;-74
2023/06/01 13:33:40;;;;;;;11.25;5.68;;;;;;;;;;5072244;28;20040;-73
2023/06/01 13:36:08;;;;;;;14.20;7.22;;;;;;;;;;5081886;28;20048;-72
2023/06/01 13:38:35;;;;;;;9.65;5.57;;;;;;;;;;5093772;28;20050;-71
2023/06/01 13:41:05;;;;;;;9.52;5.15;;;;;;;;;;5093934;28;20547;-71
2023/06/01 13:43:32;;;;;;;8.05;5.32;;;;;;;;;;5093572;28;20070;-72
2023/06/01 13:46:01;;;;;;;9.80;5.50;;;;;;;;;;5093240;28;20059;-72
2023/06/01 13:48:32;;;;;;;12.15;5.57;;;;;;;;;;5092030;28;20090;-73
2023/06/01 13:51:00;;;;;;;8.27;5.35;;;;;;;;;;5086528;28;20044;-72
2023/06/01 13:53:28;;;;;;;8.25;5.55;;;;;;;;;;5074587;28;20036;-72
2023/06/01 13:55:56;;;;;;;13.95;5.70;;;;;;;;;;5073214;28;20040;-73
2023/06/01 13:58:24;;;;;;;10.60;5.10;;;;;;;;;;5084559;28;20116;-73
2023/06/01 14:00:51;;;;;;;10.40;5.22;;;;;;;;;;5085007;28;20051;-73
2023/06/01 14:03:19;;;;;;;7.30;4.63;;;;;;;;;;5087242;28;20042;-72
2023/06/01 14:05:47;;;;;;;8.70;4.90;;;;;;;;;;5080422;28;20048;-72
2023/06/01 14:08:23;;;;;;;6.80;4.53;;;;;;;;;;5077499;28;20494;-70
2023/06/01 14:10:51;;;;;;;9.07;5.10;;;;;;;;;;5056125;28;20053;-71
2023/06/01 14:13:18;;;;;;;9.30;4.97;;;;;;;;;;5071271;28;20044;-71
2023/06/01 14:15:47;;;;;;;9.32;5.05;;;;;;;;;;5072940;28;20052;-73
2023/06/01 14:18:14;;;;;;;11.93;4.90;;;;;;;;;;5072724;28;20078;-72
2023/06/01 14:20:42;;;;;;;7.70;4.78;;;;;;;;;;5072758;28;20051;-73
2023/06/01 14:23:11;;;;;;;9.00;4.82;;;;;;;;;;5072124;28;20071;-73
2023/06/01 14:25:39;;;;;;;9.80;4.93;;;;;;;;;;5072373;28;20032;-73
2023/06/01 14:28:06;;;;;;;7.00;4.65;;;;;;;;;;5072259;28;20075;-73
2023/06/01 14:30:34;;;;;;;6.95;4.47;;;;;;;;;;5072078;28;20083;-72
2023/06/01 14:33:02;;;;;;;7.30;4.93;;;;;;;;;;5093895;28;20050;-72
2023/06/01 14:35:29;;;;;;;9.70;4.90;;;;;;;;;;5090810;28;20094;-73
2023/06/01 14:37:57;;;;;;;9.25;5.00;;;;;;;;;;5091695;28;20489;-73
2023/06/01 14:40:24;;;;;;;8.30;4.90;;;;;;;;;;5091905;28;20028;-72
2023/06/01 14:42:52;;;;;;;8.02;4.97;;;;;;;;;;5092010;28;20036;-72
2023/06/01 14:45:21;;;;;;;9.15;4.97;;;;;;;;;;5093239;28;20036;-72
2023/06/01 14:47:49;;;;;;;9.35;5.32;;;;;;;;;;5092019;28;20071;-71